createdAt,value
2023-04-06T00:02:37.786Z,99.90
2023-04-06T00:43:01.978Z,99.90
2023-04-06T00:48:05.137Z,99.90
2023-04-06T00:58:10.844Z,99.90
2023-04-06T01:08:26.507Z,99.90
2023-04-06T01:29:04.327Z,99.90
2023-04-06T01:44:22.656Z,99.90
2023-04-06T01:49:33.582Z,99.90
2023-04-06T02:00:06.515Z,99.90
2023-04-06T02:05:21.977Z,99.90
2023-04-06T02:35:52.278Z,99.90
2023-04-06T02:41:37.914Z,99.90
2023-04-06T02:47:30.253Z,99.90
2023-04-06T02:53:40.049Z,99.90
2023-04-06T02:59:19.578Z,99.90
2023-04-06T03:05:23.504Z,99.90
2023-04-06T03:10:49.848Z,99.90
2023-04-06T03:16:34.065Z,99.90
2023-04-06T03:40:36.503Z,99.90
2023-04-06T03:46:26.506Z,99.90
2023-04-06T03:52:14.479Z,99.90
2023-04-06T03:57:59.440Z,99.90
2023-04-06T04:03:21.792Z,99.90
2023-04-06T04:09:14.256Z,99.90
2023-04-06T04:14:43.407Z,99.90
2023-04-06T04:20:14.424Z,99.90
2023-04-06T04:31:22.133Z,99.90
2023-04-06T04:36:51.566Z,99.90
2023-04-06T05:00:32.150Z,99.90
2023-04-06T05:06:13.541Z,99.90
2023-04-06T05:12:09.663Z,99.90
2023-04-06T05:17:56.665Z,99.90
2023-04-06T05:23:17.108Z,99.90
2023-04-06T05:28:20.605Z,99.90
2023-04-06T05:33:23.365Z,99.90
2023-04-06T05:38:48.151Z,99.90
2023-04-06T05:44:02.303Z,99.90
2023-04-06T05:49:07.262Z,99.90
2023-04-06T05:54:11.820Z,99.90
2023-04-06T05:59:14.978Z,99.90
2023-04-06T06:04:19.214Z,99.90
2023-04-06T06:09:23.597Z,99.90
2023-04-06T06:14:46.562Z,99.90
2023-04-06T06:19:49.959Z,99.90
2023-04-06T06:24:53.133Z,99.90
2023-04-06T06:29:56.986Z,99.90
2023-04-06T06:35:00.968Z,99.90
2023-04-06T06:40:05.110Z,99.90
2023-04-06T06:45:11.044Z,99.90
2023-04-06T06:50:13.855Z,99.90
2023-04-06T06:55:16.557Z,99.90
2023-04-06T07:00:21.373Z,99.90
2023-04-06T07:05:28.682Z,99.90
2023-04-06T07:10:33.484Z,99.90
2023-04-06T07:15:36.045Z,99.90
2023-04-06T07:20:38.769Z,99.90
2023-04-06T07:25:42.131Z,99.90
2023-04-06T07:30:46.192Z,99.90
2023-04-06T07:35:49.191Z,99.90
2023-04-06T07:40:52.540Z,99.90
2023-04-06T07:45:55.866Z,99.90
2023-04-06T07:51:08.174Z,99.90
2023-04-06T07:56:18.989Z,99.90
2023-04-06T08:01:29.450Z,99.90
2023-04-06T08:06:32.082Z,99.90
2023-04-06T08:11:34.616Z,99.90
2023-04-06T08:16:37.247Z,99.90
2023-04-06T08:21:41.129Z,99.90
2023-04-06T08:26:43.741Z,99.90
2023-04-06T08:31:46.595Z,99.90
2023-04-06T08:36:49.458Z,99.30
2023-04-06T08:41:53.709Z,97.80
2023-04-06T08:46:56.332Z,96.50
2023-04-06T08:52:00.296Z,96.10
2023-04-06T08:57:03.965Z,93.80
2023-04-06T09:02:08.605Z,92.50
2023-04-06T09:07:11.490Z,92.70
2023-04-06T09:12:32.812Z,91.90
2023-04-06T09:17:35.693Z,92.10
2023-04-06T09:22:39.751Z,92.50
2023-04-06T09:27:43.336Z,91.40
2023-04-06T09:32:52.172Z,90.40
2023-04-06T09:37:55.363Z,90.60
2023-04-06T09:42:59.727Z,90.30
2023-04-06T09:48:04.055Z,90.40
2023-04-06T09:53:08.249Z,90.70
2023-04-06T09:58:27.023Z,91.10
2023-04-06T10:03:48.545Z,88.40
2023-04-06T10:08:52.852Z,89.10
2023-04-06T10:13:56.576Z,87.60
2023-04-06T10:19:17.636Z,89.10
2023-04-06T10:24:20.646Z,90.00
2023-04-06T10:29:23.377Z,89.70
2023-04-06T10:34:36.120Z,89.50
2023-04-06T10:39:48.006Z,90.30
2023-04-06T10:44:51.068Z,91.00
2023-04-06T10:49:53.567Z,91.80
2023-04-06T10:54:57.630Z,91.00
2023-04-06T11:00:00.155Z,90.90
2023-04-06T11:05:02.754Z,90.30
2023-04-06T11:10:16.650Z,90.40
2023-04-06T11:15:20.505Z,91.40
2023-04-06T11:20:23.299Z,91.60
2023-04-06T11:25:28.978Z,91.20
2023-04-06T11:30:33.974Z,91.10
2023-04-06T11:35:38.312Z,92.10
2023-04-06T11:40:41.351Z,91.30
2023-04-06T11:45:44.522Z,92.40
2023-04-06T11:50:57.233Z,92.90
2023-04-06T11:56:00.704Z,93.50
2023-04-06T12:01:06.210Z,96.30
2023-04-06T12:06:09.188Z,96.10
2023-04-06T12:11:12.654Z,96.50
2023-04-06T12:16:15.647Z,99.50
2023-04-06T12:21:18.463Z,99.90
2023-04-06T12:26:21.919Z,99.90
2023-04-06T12:31:26.526Z,99.90
2023-04-06T12:36:29.332Z,99.90
2023-04-06T12:41:32.017Z,99.90
2023-04-06T12:46:34.602Z,99.90
2023-04-06T12:51:37.276Z,99.90
2023-04-06T12:56:40.092Z,99.90
2023-04-06T13:01:42.928Z,99.90
2023-04-06T13:06:45.496Z,99.90
2023-04-06T13:11:48.427Z,99.90
2023-04-06T13:16:52.317Z,99.90
2023-04-06T13:21:54.942Z,99.90
2023-04-06T13:26:58.167Z,99.90
2023-04-06T13:32:01.092Z,99.90
2023-04-06T13:37:03.835Z,99.90
2023-04-06T13:42:07.692Z,99.90
2023-04-06T13:47:10.701Z,99.90
2023-04-06T13:52:13.487Z,99.90
2023-04-06T13:57:16.306Z,99.90
2023-04-06T14:07:24.739Z,99.90
2023-04-06T14:12:28.108Z,99.90
2023-04-06T14:17:30.649Z,99.90
2023-04-06T14:22:33.442Z,99.90
2023-04-06T14:27:36.346Z,99.90
2023-04-06T14:32:38.914Z,99.90
2023-04-06T14:37:41.538Z,99.90
2023-04-06T14:42:44.062Z,99.90
2023-04-06T14:47:46.705Z,99.90
2023-04-06T14:52:49.291Z,99.90
2023-04-06T14:57:51.827Z,99.90
2023-04-06T15:07:57.643Z,99.90
2023-04-06T15:13:00.711Z,99.90
2023-04-06T15:18:03.723Z,99.90
2023-04-06T15:23:06.666Z,99.90
2023-04-06T15:28:09.195Z,99.90
2023-04-06T15:38:15.225Z,99.90
2023-04-06T15:43:17.910Z,99.90
2023-04-06T15:53:23.490Z,99.90
2023-04-06T16:08:32.730Z,99.90
2023-04-06T16:18:38.500Z,99.90
2023-04-06T16:23:42.135Z,99.90
2023-04-06T16:33:53.513Z,99.90
2023-04-06T16:38:57.329Z,99.90
2023-04-06T16:44:00.602Z,99.90
2023-04-06T16:49:05.086Z,99.90
2023-04-06T16:54:07.706Z,99.90
2023-04-06T16:59:10.800Z,99.90
2023-04-06T17:04:13.641Z,99.90
2023-04-06T17:09:16.510Z,99.90
2023-04-06T17:24:25.409Z,99.90
2023-04-06T17:34:31.296Z,99.90
2023-04-06T17:49:39.833Z,99.90
2023-04-06T17:54:42.680Z,99.90
2023-04-06T18:04:53.725Z,99.90
2023-04-06T18:09:56.801Z,99.90
2023-04-06T18:14:59.613Z,99.90
2023-04-06T18:20:02.235Z,99.90
2023-04-06T18:25:05.699Z,99.90
2023-04-06T18:35:12.314Z,99.90
2023-04-06T18:40:35.418Z,99.90
2023-04-06T18:50:41.662Z,99.90
2023-04-06T18:55:45.471Z,99.90
2023-04-06T19:10:54.638Z,99.90
2023-04-06T19:15:58.107Z,99.90
2023-04-06T19:21:05.900Z,99.90
2023-04-06T19:26:13.524Z,99.90
2023-04-06T19:31:18.221Z,99.90
2023-04-06T19:41:25.460Z,99.90
2023-04-06T19:46:28.512Z,99.90
2023-04-06T19:51:35.558Z,99.90
2023-04-06T20:01:42.253Z,99.90
2023-04-06T20:06:44.925Z,99.90
2023-04-06T20:11:47.492Z,99.90
2023-04-06T20:16:50.916Z,99.90
2023-04-06T20:21:55.705Z,99.90
2023-04-06T20:32:02.367Z,99.90
2023-04-06T20:52:14.664Z,99.90
2023-04-06T20:57:17.378Z,99.90
2023-04-06T21:02:20.043Z,99.90
2023-04-06T21:07:22.617Z,99.90
2023-04-06T21:12:27.118Z,99.90
2023-04-06T21:17:29.575Z,99.90
2023-04-06T21:27:35.345Z,99.90
2023-04-06T21:37:40.756Z,99.90
2023-04-06T21:42:43.476Z,99.90
2023-04-06T21:57:57.559Z,99.90
2023-04-06T22:03:00.234Z,99.90
2023-04-06T22:13:06.224Z,99.90
2023-04-06T22:23:11.907Z,99.90
2023-04-06T22:28:14.750Z,99.90
2023-04-06T22:38:20.153Z,99.90
2023-04-06T22:43:22.699Z,99.90
2023-04-06T22:48:25.246Z,99.90
2023-04-06T22:58:30.742Z,99.90
2023-04-06T23:08:36.372Z,99.90
2023-04-06T23:23:45.523Z,99.90
2023-04-06T23:33:51.170Z,99.90
2023-04-06T23:38:53.879Z,99.90
2023-04-06T23:43:56.749Z,99.90
2023-04-06T23:48:59.664Z,99.90
2023-04-06T23:54:02.443Z,99.90
2023-04-06T23:59:07.612Z,99.90
